Strona główna
METAR-TAF:

METAR-TAF

Lotnisko :

Port lotniczy Pieszczany

Pieszczany, Słowacja

Szerokość geograficzna: 48-37-30N, Długość geograficzna: 017-49-43E, wysokość: 163 m

Aktualna obserwacja pogody

Raport powstał 24 minut temu, godzina 02:00 UTC
Wiatr 5 kt od północ
Temperatura -1°C
Wilgotność 80%
Ciśnienie 1029 hPa
Widzialność 10 km lub więcej

METAR: LZPP 060200Z AUTO 36005KT 9999 NCD M01/M04 Q1029

czas: 04:24 (02:24 UTC)

Prognoza

Raport powstał 9 godziny i 24 minut temu, godzina 17:00 UTC
Prognoza ważna od 05 godzina 18 UTC do 06 godzina 03 UTC
Wiatr 5 kt od zachód
Widzialność 10 km lub więcej
Brak chmur poniżej 1500 m i brak chmur cumulonimbus
Stopniowe zmiany
od 05 godzina 20 UTC do 05 godzina 22 UTC
Wiatr 8 kt od południowo-południowy wschód

TAF: LZPP 051700Z 0518/0603 28005KT CAVOK BECMG 0520/0522 16008KT

Obserwacja i prognoza pogody dla ponad 4000 lotnisk (raport METAR i TAF).

Dostępne stacje oznaczono żółtymi i czerwonymi punktami na mapie.

Najedź kursorem aby zobaczyć nazwę stacji.

Kliknij aby zobaczyć obserwacje i prognozy pogody.

Aby zmienić mapę: kliknij na zielony przycisk z czarnym krzyżykiem, aby powiększyć; na zielony przycisk z myślnikiem, aby pomniejszyć; na zielone strzałki, aby przejść do map sąsiednich.


METAR-TAF: